Time;durP1;ratioP1;P1;durP2;ratioP2;P2;SDS_P1;SDS_P2;PMS_P1;PMS_P2;Temp;Humidity;BMP_temperature;BMP_pressure;BME280_temperature;BME280_humidity;BME280_pressure;Samples;Min_cycle;Max_cycle;Signal;HPM_P1;HPM_P2
2023/02/26 00:01:14;;;;;;;14.60;6.43;;;;;;;8.36;64.55;99243.73;123548;1106;104272;-81
2023/02/26 00:03:48;;;;;;;17.53;7.10;;;;;;;8.35;65.22;99248.09;123646;1108;104366;-81
2023/02/26 00:06:20;;;;;;;18.27;7.07;;;;;;;8.31;65.08;99261.92;123580;1109;104303;-81
2023/02/26 00:08:52;;;;;;;16.80;7.10;;;;;;;8.28;64.78;99259.23;123600;1108;104239;-80
2023/02/26 00:11:24;;;;;;;17.90;7.27;;;;;;;8.27;65.04;99266.20;123626;1109;104344;-80
2023/02/26 00:13:56;;;;;;;17.87;8.27;;;;;;;8.27;64.70;99271.42;123617;1109;104277;-81
2023/02/26 00:16:31;;;;;;;17.17;7.90;;;;;;;8.30;65.15;99267.11;123572;1109;104300;-81
2023/02/26 00:19:05;;;;;;;16.55;7.40;;;;;;;8.31;64.61;99258.44;123615;1106;104268;-80
2023/02/26 00:21:38;;;;;;;18.47;7.47;;;;;;;8.30;65.06;99256.66;123609;1109;104373;-80
2023/02/26 00:24:09;;;;;;;17.23;6.97;;;;;;;8.27;64.71;99255.74;123624;1109;104312;-81
2023/02/26 00:26:41;;;;;;;16.23;7.20;;;;;;;8.24;65.00;99258.28;123537;1109;104297;-80
2023/02/26 00:29:13;;;;;;;15.53;7.57;;;;;;;8.24;64.63;99250.44;123579;1109;104268;-81
2023/02/26 00:31:45;;;;;;;15.30;7.30;;;;;;;8.26;64.66;99253.09;123627;1109;104309;-82
2023/02/26 00:34:18;;;;;;;16.20;7.50;;;;;;;8.26;64.58;99261.80;123625;1109;104268;-80
2023/02/26 00:36:59;;;;;;;17.67;7.33;;;;;;;8.24;64.94;99259.98;123653;1107;104271;-82
2023/02/26 00:39:40;;;;;;;15.37;7.10;;;;;;;8.26;64.62;99266.16;123646;1109;104268;-80
2023/02/26 00:42:13;;;;;;;15.40;7.53;;;;;;;8.28;64.63;99265.33;123651;1109;104268;-81
2023/02/26 00:44:46;;;;;;;17.43;7.77;;;;;;;8.31;64.91;99274.12;123706;1109;104380;-81
2023/02/26 00:47:26;;;;;;;18.57;7.70;;;;;;;8.27;64.93;99287.11;123582;1109;104191;-81
2023/02/26 00:50:12;;;;;;;23.60;8.20;;;;;;;8.22;64.69;99293.05;123668;1109;104240;-81
2023/02/26 00:52:50;;;;;;;20.33;9.70;;;;;;;8.17;64.48;99292.92;123566;1108;104294;-81
2023/02/26 00:55:23;;;;;;;20.17;9.20;;;;;;;8.13;64.40;99304.13;123594;1109;104198;-81
2023/02/26 00:57:54;;;;;;;17.80;8.10;;;;;;;8.09;64.41;99310.14;123772;1108;104332;-81
2023/02/26 01:00:26;;;;;;;20.50;8.33;;;;;;;8.05;64.28;99314.37;123571;1109;104437;-82
2023/02/26 01:02:58;;;;;;;19.33;8.93;;;;;;;8.04;64.60;99315.24;123669;1108;104409;-82
2023/02/26 01:05:31;;;;;;;16.63;7.87;;;;;;;8.03;64.65;99316.08;123593;1108;104204;-81
2023/02/26 01:08:08;;;;;;;17.30;8.10;;;;;;;8.01;64.29;99316.87;123582;1109;104195;-81
2023/02/26 01:10:41;;;;;;;17.65;7.95;;;;;;;7.98;64.67;99322.01;123557;1105;104255;-82
2023/02/26 01:13:14;;;;;;;19.67;8.53;;;;;;;7.95;64.53;99316.70;123610;1109;104354;-81
2023/02/26 01:15:51;;;;;;;17.97;8.23;;;;;;;7.96;65.08;99313.25;123622;1105;104184;-81
2023/02/26 01:18:26;;;;;;;22.10;9.60;;;;;;;7.99;65.20;99308.11;123574;1105;104189;-81
2023/02/26 01:21:02;;;;;;;19.57;8.70;;;;;;;7.98;65.13;99303.72;123881;1105;104261;-82
2023/02/26 01:26:30;;;;;;;23.27;10.17;;;;;;;7.83;65.51;99312.05;126395;1096;102415;-79
2023/02/26 01:29:02;;;;;;;19.63;9.00;;;;;;;7.78;65.03;99308.43;125334;1105;104207;-80
2023/02/26 01:31:45;;;;;;;22.70;9.57;;;;;;;7.70;65.47;99313.44;124893;1105;104258;-79
2023/02/26 01:34:23;;;;;;;23.03;10.83;;;;;;;7.58;65.33;99320.92;124474;1108;104377;-80
2023/02/26 01:37:02;;;;;;;24.05;11.10;;;;;;;7.40;65.29;99318.64;124525;1106;104303;-79
2023/02/26 01:39:40;;;;;;;23.10;11.47;;;;;;;7.29;65.27;99324.45;123899;1105;104383;-80
2023/02/26 01:42:19;;;;;;;23.07;11.67;;;;;;;7.25;65.73;99326.92;124034;1109;104326;-81
2023/02/26 01:45:03;;;;;;;23.60;11.77;;;;;;;7.21;65.47;99344.18;123918;1108;104322;-80
2023/02/26 01:47:45;;;;;;;23.77;11.05;;;;;;;7.24;65.96;99351.23;123759;1108;104319;-80
2023/02/26 01:50:20;;;;;;;22.73;10.50;;;;;;;7.23;65.70;99357.27;123767;1108;118626;-80
2023/02/26 01:53:22;;;;;;;21.90;9.50;;;;;;;7.19;65.87;99375.45;123553;1105;104405;-80
2023/02/26 01:56:00;;;;;;;21.47;9.90;;;;;;;7.08;66.47;99382.06;123197;1105;104261;-82
2023/02/26 01:58:34;;;;;;;20.43;9.50;;;;;;;6.94;66.79;99385.95;123233;1105;104287;-83
2023/02/26 02:01:06;;;;;;;19.62;8.85;;;;;;;6.79;66.40;99387.23;123120;1109;104408;-82
2023/02/26 02:03:41;;;;;;;20.67;8.07;;;;;;;6.71;66.73;99385.20;123256;1105;104358;-82
2023/02/26 02:06:20;;;;;;;17.17;8.07;;;;;;;6.62;66.61;99391.88;123268;1105;104309;-81
2023/02/26 02:08:51;;;;;;;18.70;8.00;;;;;;;6.57;67.12;99405.58;123169;1105;104274;-81
2023/02/26 02:11:23;;;;;;;18.47;8.63;;;;;;;6.50;67.22;99407.10;123198;1105;104261;-81
2023/02/26 02:14:10;;;;;;;18.23;7.90;;;;;;;6.42;66.99;99418.95;123297;1109;104248;-82
2023/02/26 02:16:48;;;;;;;18.43;8.33;;;;;;;6.34;66.96;99417.81;123118;1109;104400;-82
2023/02/26 02:19:41;;;;;;;20.00;8.10;;;;;;;6.29;67.08;99417.65;123296;1105;104379;-82
2023/02/26 02:22:32;;;;;;;17.80;7.90;;;;;;;6.33;67.64;99423.84;123288;1105;104329;-82
2023/02/26 02:25:20;;;;;;;16.90;7.23;;;;;;;6.27;67.30;99424.53;123187;1105;104370;-82
2023/02/26 02:28:03;;;;;;;16.60;7.70;;;;;;;6.21;67.25;99425.19;123196;1105;104319;-82
2023/02/26 02:30:44;;;;;;;18.03;7.80;;;;;;;6.16;67.71;99423.27;123191;1108;104696;-83
2023/02/26 02:33:20;;;;;;;14.03;6.80;;;;;;;6.15;67.99;99424.09;123177;1105;104405;-82
2023/02/26 02:35:56;;;;;;;14.87;6.83;;;;;;;6.15;67.94;99413.67;123255;1105;104427;-82
2023/02/26 02:38:33;;;;;;;15.47;6.30;;;;;;;6.17;68.08;99418.12;123170;1105;104377;-82
2023/02/26 02:41:11;;;;;;;13.57;5.70;;;;;;;6.16;67.91;99415.45;123313;1105;104325;-83
2023/02/26 02:43:45;;;;;;;12.93;6.40;;;;;;;6.18;68.49;99411.17;123155;1105;104354;-84
2023/02/26 02:46:25;;;;;;;15.63;6.30;;;;;;;6.20;68.32;99409.50;123166;1105;104331;-84
2023/02/26 02:49:01;;;;;;;13.63;5.63;;;;;;;6.20;68.26;99418.23;123158;1105;104251;-81
2023/02/26 02:51:37;;;;;;;10.20;5.00;;;;;;;6.21;68.74;99421.70;123107;1105;112155;-83
2023/02/26 02:54:13;;;;;;;10.33;4.83;;;;;;;6.22;68.65;99423.49;123287;1105;104673;-82
2023/02/26 02:56:50;;;;;;;9.23;4.77;;;;;;;6.24;68.99;99432.23;123294;1105;104429;-82
2023/02/26 02:59:25;;;;;;;9.77;4.80;;;;;;;6.26;68.97;99427.96;123186;1105;104424;-82
2023/02/26 03:02:02;;;;;;;10.53;4.90;;;;;;;6.24;69.23;99425.30;123161;1109;104370;-84
2023/02/26 03:04:34;;;;;;;11.73;5.27;;;;;;;6.23;69.29;99428.76;123172;1106;104267;-82
2023/02/26 03:07:06;;;;;;;;;;;;;;;6.27;69.85;99430.63;123333;1109;104344;-82
2023/02/26 03:09:37;;;;;;;9.57;4.37;;;;;;;6.29;69.30;99438.49;123197;1105;104290;-82
2023/02/26 03:12:09;;;;;;;8.77;4.50;;;;;;;6.27;69.52;99432.35;123223;1106;107751;-82
2023/02/26 03:14:41;;;;;;;8.33;4.30;;;;;;;6.29;69.47;99435.89;123213;1109;104300;-82
2023/02/26 03:17:26;;;;;;;10.87;4.43;;;;;;;6.32;69.35;99435.13;123194;1105;104275;-82
2023/02/26 03:20:14;;;;;;;10.10;4.97;;;;;;;6.35;69.74;99438.70;123258;1106;104332;-83
2023/02/26 03:22:56;;;;;;;11.65;4.70;;;;;;;6.38;69.93;99441.42;123219;1106;104399;-82
2023/02/26 03:25:33;;;;;;;7.40;4.17;;;;;;;6.40;70.00;99452.78;123173;1109;104399;-82
2023/02/26 03:28:11;;;;;;;9.93;4.50;;;;;;;6.42;70.16;99453.74;123200;1109;104296;-82
2023/02/26 03:30:48;;;;;;;12.30;5.17;;;;;;;6.44;70.12;99452.06;123134;1106;104373;-81
2023/02/26 03:33:23;;;;;;;8.03;4.30;;;;;;;6.49;70.15;99452.23;123153;1106;104297;-81
2023/02/26 03:36:00;;;;;;;10.73;4.70;;;;;;;6.52;70.37;99446.25;123188;1106;104274;-82
2023/02/26 03:38:37;;;;;;;9.03;4.73;;;;;;;6.55;70.59;99456.78;123036;1109;104328;-82
2023/02/26 03:41:12;;;;;;;9.00;4.55;;;;;;;6.56;70.69;99454.23;123119;1107;105539;-82
2023/02/26 03:43:49;;;;;;;7.47;4.17;;;;;;;6.59;70.71;99459.55;123182;1109;104371;-81
2023/02/26 03:46:25;;;;;;;10.27;4.53;;;;;;;6.58;71.00;99451.68;123052;1108;104194;-82
2023/02/26 03:49:02;;;;;;;7.50;3.85;;;;;;;6.58;70.99;99441.25;123188;1109;104188;-82
2023/02/26 03:51:35;;;;;;;8.75;4.40;;;;;;;6.58;71.24;99438.64;123098;1105;104443;-82
2023/02/26 03:54:30;;;;;;;8.83;4.30;;;;;;;6.58;70.91;99442.13;123204;1108;104389;-81
2023/02/26 03:57:17;;;;;;;10.07;5.00;;;;;;;6.58;71.12;99421.28;123061;1109;104313;-81
2023/02/26 04:00:11;;;;;;;7.63;3.97;;;;;;;6.56;71.23;99416.83;123002;1109;104281;-82
2023/02/26 04:02:53;;;;;;;7.97;4.37;;;;;;;6.56;71.48;99409.02;123112;1109;104262;-82
2023/02/26 04:05:28;;;;;;;6.37;3.90;;;;;;;6.55;71.38;99404.66;123090;1109;104322;-83
2023/02/26 04:08:02;;;;;;;7.93;4.07;;;;;;;6.56;71.42;99406.41;123189;1109;104277;-83
2023/02/26 04:10:54;;;;;;;8.47;4.07;;;;;;;6.56;71.62;99403.80;123173;1107;104345;-84
2023/02/26 04:13:27;;;;;;;7.33;3.67;;;;;;;6.57;71.71;99402.98;123390;1109;104678;-84
2023/02/26 04:15:58;;;;;;;6.43;3.50;;;;;;;6.57;71.60;99408.19;123208;1106;104344;-83
2023/02/26 04:18:31;;;;;;;7.13;3.97;;;;;;;6.56;71.85;99409.02;123124;1106;104245;-83
2023/02/26 04:21:04;;;;;;;6.90;3.63;;;;;;;6.54;71.93;99408.09;123250;1109;104403;-83
2023/02/26 04:23:36;;;;;;;6.63;3.60;;;;;;;6.50;71.98;99407.10;123184;1109;104303;-83
2023/02/26 04:26:12;;;;;;;5.07;3.20;;;;;;;6.51;72.15;99407.98;123082;1109;104811;-83
2023/02/26 04:28:45;;;;;;;6.53;3.40;;;;;;;6.49;72.33;99410.53;123163;1109;104281;-83
2023/02/26 04:31:18;;;;;;;7.58;3.50;;;;;;;6.46;72.46;99411.30;123153;1109;104718;-83
2023/02/26 04:33:50;;;;;;;4.97;3.20;;;;;;;6.45;72.54;99425.19;123130;1109;104374;-83
2023/02/26 04:36:23;;;;;;;5.65;3.00;;;;;;;6.46;72.17;99441.70;123165;1109;104415;-83
2023/02/26 04:38:55;;;;;;;6.63;3.30;;;;;;;6.44;72.39;99449.46;123265;1109;104357;-83
2023/02/26 04:41:28;;;;;;;7.33;3.67;;;;;;;6.44;72.57;99443.38;123247;1109;104262;-83
2023/02/26 04:44:00;;;;;;;7.75;4.05;;;;;;;6.42;72.73;99451.14;123119;1109;104415;-83
2023/02/26 04:46:34;;;;;;;8.07;3.93;;;;;;;6.42;72.96;99451.14;123267;1105;104274;-83
2023/02/26 04:49:07;;;;;;;5.93;3.50;;;;;;;6.43;72.69;99458.10;123160;1109;104469;-83
2023/02/26 04:51:40;;;;;;;7.30;4.10;;;;;;;6.44;72.85;99464.22;123207;1109;104217;-83
2023/02/26 04:54:12;;;;;;;10.73;4.40;;;;;;;6.45;73.16;99458.16;123136;1105;104399;-83
2023/02/26 04:56:43;;;;;;;5.87;3.70;;;;;;;6.45;73.08;99464.28;123201;1109;104385;-82
2023/02/26 04:59:17;;;;;;;8.48;4.50;;;;;;;6.46;72.94;99460.81;123115;1109;104261;-82
2023/02/26 05:01:48;;;;;;;9.50;4.70;;;;;;;6.47;73.26;99461.73;123125;1105;104763;-82
2023/02/26 05:04:20;;;;;;;6.97;4.10;;;;;;;6.46;73.39;99458.21;123043;1108;104248;-82
2023/02/26 05:06:54;;;;;;;8.63;3.80;;;;;;;6.43;73.68;99457.22;123185;1105;104718;-83
2023/02/26 05:09:26;;;;;;;6.95;3.80;;;;;;;6.40;73.66;99463.20;123168;1109;104389;-83
2023/02/26 05:11:57;;;;;;;8.00;3.77;;;;;;;6.39;73.91;99465.75;123215;1108;104271;-82
2023/02/26 05:14:28;;;;;;;7.70;4.30;;;;;;;6.37;74.37;99473.52;123107;1109;104290;-82
2023/02/26 05:17:00;;;;;;;8.75;4.10;;;;;;;6.36;74.04;99474.37;123230;1109;104380;-82
2023/02/26 05:19:31;;;;;;;9.27;4.37;;;;;;;6.34;74.21;99478.61;123156;1109;104405;-82
2023/02/26 05:22:02;;;;;;;8.10;4.20;;;;;;;6.33;74.12;99474.26;123077;1109;104315;-83
2023/02/26 05:24:34;;;;;;;7.73;4.20;;;;;;;6.33;74.24;99471.66;123162;1109;104459;-81
2023/02/26 05:27:05;;;;;;;8.40;4.70;;;;;;;6.33;74.17;99473.34;123054;1108;104293;-82
2023/02/26 05:29:39;;;;;;;7.97;4.43;;;;;;;6.33;74.33;99474.26;123221;1109;104351;-82
2023/02/26 05:32:13;;;;;;;8.73;4.63;;;;;;;6.32;74.42;99468.98;123310;1108;104435;-81
2023/02/26 05:34:45;;;;;;;9.30;4.53;;;;;;;6.29;74.74;99478.48;123116;1108;104329;-82
2023/02/26 05:37:16;;;;;;;10.10;4.70;;;;;;;6.27;74.46;99487.94;123071;1108;104331;-82
2023/02/26 05:39:47;;;;;;;11.13;5.50;;;;;;;6.27;74.96;99489.66;123066;1109;104254;-82
2023/02/26 05:42:18;;;;;;;12.67;6.27;;;;;;;6.27;75.03;99497.48;123178;1108;104293;-81
2023/02/26 05:44:50;;;;;;;12.43;6.57;;;;;;;6.25;74.96;99499.16;122992;1109;104297;-82
2023/02/26 05:47:21;;;;;;;11.20;5.53;;;;;;;6.25;74.94;99509.58;123107;1109;104265;-82
2023/02/26 05:49:52;;;;;;;9.97;5.57;;;;;;;6.25;75.19;99514.78;123151;1109;104290;-82
2023/02/26 05:52:26;;;;;;;10.80;5.63;;;;;;;6.24;75.24;99511.27;123114;1109;104373;-82
2023/02/26 05:54:57;;;;;;;11.50;5.83;;;;;;;6.23;75.76;99521.63;123205;1106;104290;-82
2023/02/26 05:57:28;;;;;;;11.07;5.67;;;;;;;6.23;75.39;99524.23;123202;1107;104219;-82
2023/02/26 06:00:00;;;;;;;12.13;6.10;;;;;;;6.24;75.87;99528.63;123183;1109;104370;-82
2023/02/26 06:02:31;;;;;;;10.83;6.33;;;;;;;6.22;76.09;99528.58;123269;1107;104373;-81
2023/02/26 06:05:02;;;;;;;13.60;7.00;;;;;;;6.20;75.91;99531.94;123213;1108;104287;-82
2023/02/26 06:07:33;;;;;;;11.60;6.50;;;;;;;6.18;75.87;99531.88;123299;1107;104303;-82
2023/02/26 06:10:07;;;;;;;13.57;6.90;;;;;;;6.20;76.02;99552.78;123240;1109;104261;-83
2023/02/26 06:12:38;;;;;;;12.37;5.92;;;;;;;6.18;75.82;99546.63;123165;1109;104269;-81
2023/02/26 06:15:12;;;;;;;13.50;6.73;;;;;;;6.18;76.08;99551.84;123103;1109;104277;-81
2023/02/26 06:17:43;;;;;;;11.00;6.83;;;;;;;6.16;76.22;99561.33;123241;1105;104834;-81
2023/02/26 06:20:15;;;;;;;14.10;7.27;;;;;;;6.18;75.92;99560.53;123166;1109;104275;-82
2023/02/26 06:22:46;;;;;;;14.10;6.93;;;;;;;6.22;75.94;99556.35;123230;1107;104332;-82
2023/02/26 06:25:18;;;;;;;12.80;7.10;;;;;;;6.23;75.93;99573.73;123131;1109;104288;-81
2023/02/26 06:27:49;;;;;;;16.60;7.20;;;;;;;6.24;75.81;99576.40;123218;1109;104316;-81
2023/02/26 06:30:22;;;;;;;14.20;6.90;;;;;;;6.25;76.13;99570.38;123178;1109;104299;-81
2023/02/26 06:32:53;;;;;;;14.03;6.73;;;;;;;6.26;75.84;99586.88;123076;1109;104277;-82
2023/02/26 06:35:25;;;;;;;12.47;6.90;;;;;;;6.29;76.07;99584.39;123061;1109;104367;-82
2023/02/26 06:37:56;;;;;;;13.83;7.20;;;;;;;6.30;76.11;99583.58;123114;1109;104296;-82
2023/02/26 06:40:27;;;;;;;13.00;7.13;;;;;;;6.30;76.19;99584.45;123202;1109;104239;-82
2023/02/26 06:42:59;;;;;;;11.63;6.53;;;;;;;6.32;76.08;99586.23;123098;1109;104284;-82
2023/02/26 06:45:30;;;;;;;14.87;7.00;;;;;;;6.34;76.28;99590.66;123061;1106;104175;-82
2023/02/26 06:48:01;;;;;;;13.43;6.87;;;;;;;6.36;75.87;99594.23;123171;1105;104373;-82
2023/02/26 06:50:33;;;;;;;12.93;6.90;;;;;;;6.38;76.13;99589.95;123143;1105;104353;-82
2023/02/26 06:53:04;;;;;;;14.33;7.33;;;;;;;6.40;76.01;99601.31;123197;1105;104313;-82
2023/02/26 06:55:35;;;;;;;14.07;7.20;;;;;;;6.40;76.13;99597.83;123203;1109;104249;-82
2023/02/26 06:58:07;;;;;;;13.03;7.10;;;;;;;6.42;76.04;99602.28;123247;1109;102060;-82
2023/02/26 07:00:39;;;;;;;15.43;7.43;;;;;;;6.45;76.03;99605.00;123120;1109;104264;-82
2023/02/26 07:03:13;;;;;;;15.67;7.90;;;;;;;6.48;76.06;99612.94;123001;1106;104370;-81
2023/02/26 07:05:44;;;;;;;14.63;6.60;;;;;;;6.52;76.57;99611.33;123046;1106;104264;-80
2023/02/26 07:08:16;;;;;;;16.70;7.20;;;;;;;6.51;76.13;99616.48;123061;1109;104300;-81
2023/02/26 07:10:48;;;;;;;14.53;7.83;;;;;;;6.44;76.14;99615.38;123123;1108;104287;-80
2023/02/26 07:13:20;;;;;;;16.47;8.03;;;;;;;6.37;76.48;99628.98;123205;1109;104267;-80
2023/02/26 07:15:51;;;;;;;16.97;7.83;;;;;;;6.34;76.42;99629.74;123054;1108;104267;-80
2023/02/26 07:18:22;;;;;;;14.20;7.60;;;;;;;6.32;76.81;99625.32;123095;1106;104267;-80
2023/02/26 07:20:53;;;;;;;15.10;7.50;;;;;;;6.29;76.77;99633.90;123120;1109;104687;-80
2023/02/26 07:23:25;;;;;;;16.83;7.80;;;;;;;6.26;76.92;99638.98;123133;1109;104370;-81
2023/02/26 07:25:56;;;;;;;16.47;8.33;;;;;;;6.28;77.07;99629.53;123191;1106;104274;-80
2023/02/26 07:28:28;;;;;;;16.43;8.07;;;;;;;6.24;78.09;99635.45;123069;1106;104354;-80
2023/02/26 07:30:59;;;;;;;17.50;8.43;;;;;;;6.24;77.54;99630.23;123119;1109;104188;-81
2023/02/26 07:33:31;;;;;;;16.07;8.17;;;;;;;6.24;77.57;99622.42;123150;1107;104290;-81
2023/02/26 07:36:02;;;;;;;18.20;8.10;;;;;;;6.24;77.86;99612.87;123211;1109;104217;-80
2023/02/26 07:38:33;;;;;;;15.80;7.13;;;;;;;6.22;78.37;99613.66;123239;1105;104364;-81
2023/02/26 07:41:06;;;;;;;14.40;6.93;;;;;;;6.17;78.97;99604.76;123187;1106;104265;-81
2023/02/26 07:43:38;;;;;;;16.97;6.83;;;;;;;6.14;78.21;99615.06;123163;1108;104361;-80
2023/02/26 07:46:13;;;;;;;14.77;6.83;;;;;;;6.08;78.61;99606.19;123163;1108;104239;-81
2023/02/26 07:48:44;;;;;;;13.58;6.65;;;;;;;6.05;79.94;99605.19;123234;1109;104332;-81
2023/02/26 07:51:15;;;;;;;14.73;6.50;;;;;;;6.00;80.19;99622.33;123258;1106;104216;-81
2023/02/26 07:53:46;;;;;;;11.93;5.63;;;;;;;5.95;79.86;99637.73;123184;1109;104258;-81
2023/02/26 07:56:18;;;;;;;11.47;5.23;;;;;;;5.92;80.21;99632.40;123022;1109;104399;-81
2023/02/26 07:58:49;;;;;;;11.53;5.60;;;;;;;5.91;81.19;99615.02;123143;1109;104373;-81
2023/02/26 08:01:20;;;;;;;14.05;5.10;;;;;;;5.86;80.69;99621.73;123220;1106;104264;-80
2023/02/26 08:03:52;;;;;;;10.73;5.17;;;;;;;5.83;79.96;99637.23;123219;1109;104270;-82
2023/02/26 08:06:23;;;;;;;11.43;5.60;;;;;;;5.89;79.86;99632.27;123159;1108;104801;-81
2023/02/26 08:08:54;;;;;;;12.13;5.47;;;;;;;5.95;80.36;99629.92;123085;1106;104261;-81
2023/02/26 08:11:26;;;;;;;11.47;5.37;;;;;;;6.00;79.94;99643.16;123018;1105;104373;-80
2023/02/26 08:13:57;;;;;;;9.53;5.03;;;;;;;5.95;79.90;99645.54;123134;1105;104300;-81
2023/02/26 08:16:29;;;;;;;8.57;4.53;;;;;;;5.97;81.25;99637.83;123161;1105;104521;-81
2023/02/26 08:19:02;;;;;;;10.27;4.80;;;;;;;5.98;80.91;99629.20;123137;1105;104336;-81
2023/02/26 08:21:34;;;;;;;10.70;4.95;;;;;;;6.01;80.51;99656.24;123028;1105;104322;-82
2023/02/26 08:24:06;;;;;;;9.87;5.03;;;;;;;6.06;80.02;99638.20;123109;1105;104203;-81
2023/02/26 08:26:39;;;;;;;8.47;4.90;;;;;;;6.13;80.64;99634.14;123168;1105;104242;-81
2023/02/26 08:29:10;;;;;;;12.83;5.30;;;;;;;6.13;80.06;99654.98;123163;1105;104187;-82
2023/02/26 08:31:41;;;;;;;9.97;4.83;;;;;;;6.17;81.53;99620.39;123232;1105;104411;-80
2023/02/26 08:34:13;;;;;;;9.73;5.20;;;;;;;6.19;80.87;99618.75;123131;1106;104269;-82
2023/02/26 08:36:44;;;;;;;10.83;5.50;;;;;;;6.23;80.02;99637.17;123194;1105;104200;-82
2023/02/26 08:39:16;;;;;;;9.25;4.95;;;;;;;6.24;81.44;99627.63;123172;1106;104248;-81
2023/02/26 08:41:47;;;;;;;10.93;5.17;;;;;;;6.21;81.19;99620.57;123157;1109;104194;-81
2023/02/26 08:44:18;;;;;;;7.93;4.47;;;;;;;6.19;81.12;99626.57;123190;1109;104408;-81
2023/02/26 08:46:49;;;;;;;10.03;4.97;;;;;;;6.15;80.79;99643.77;123168;1108;104290;-81
2023/02/26 08:49:21;;;;;;;9.70;4.70;;;;;;;6.10;80.90;99640.11;123111;1106;104354;-81
2023/02/26 08:51:52;;;;;;;9.40;4.20;;;;;;;6.04;82.55;99627.72;123158;1105;102041;-80
2023/02/26 08:54:23;;;;;;;7.47;4.40;;;;;;;6.03;81.32;99641.59;123145;1105;104316;-82
2023/02/26 08:56:56;;;;;;;8.60;4.40;;;;;;;6.05;80.80;99671.17;123128;1105;104297;-82
2023/02/26 08:59:27;;;;;;;9.85;4.40;;;;;;;6.07;80.66;99666.91;123252;1109;104677;-82
2023/02/26 09:01:59;;;;;;;10.47;4.80;;;;;;;6.05;80.87;99665.09;123244;1105;104268;-81
2023/02/26 09:04:30;;;;;;;7.43;4.20;;;;;;;6.06;80.29;99683.38;123119;1105;104280;-82
2023/02/26 09:07:01;;;;;;;8.45;4.50;;;;;;;6.00;80.50;99693.55;123113;1105;104293;-81
2023/02/26 09:09:33;;;;;;;8.37;4.10;;;;;;;5.97;80.30;99683.01;123152;1105;104415;-83
2023/02/26 09:12:04;;;;;;;7.50;4.45;;;;;;;5.93;80.43;99681.06;123172;1105;104297;-82
2023/02/26 09:14:36;;;;;;;8.23;4.53;;;;;;;5.90;80.59;99692.23;123150;1105;104370;-83
2023/02/26 09:17:07;;;;;;;8.55;4.20;;;;;;;5.89;80.32;99702.58;123139;1105;104344;-81
2023/02/26 09:19:38;;;;;;;8.97;4.47;;;;;;;5.86;80.60;99697.24;123162;1105;117749;-82
2023/02/26 09:22:10;;;;;;;8.85;4.60;;;;;;;5.90;80.36;99691.34;123228;1105;104329;-82
2023/02/26 09:24:41;;;;;;;8.20;4.60;;;;;;;5.89;80.34;99698.28;123056;1105;104185;-82
2023/02/26 09:27:12;;;;;;;10.30;5.53;;;;;;;5.88;80.60;99695.61;123262;1105;104214;-82
2023/02/26 09:29:44;;;;;;;9.30;5.13;;;;;;;5.90;80.21;99689.63;123171;1105;104332;-83
2023/02/26 09:32:15;;;;;;;10.70;4.80;;;;;;;5.94;80.79;99686.33;123191;1105;104300;-82
2023/02/26 09:34:46;;;;;;;8.05;4.65;;;;;;;5.97;80.37;99689.91;123187;1105;104287;-83
2023/02/26 09:37:18;;;;;;;7.93;4.37;;;;;;;5.97;80.92;99693.42;123209;1105;104300;-82
2023/02/26 09:39:49;;;;;;;11.33;4.97;;;;;;;5.96;80.48;99688.12;123124;1105;104248;-84
2023/02/26 09:42:28;;;;;;;9.10;4.77;;;;;;;5.94;81.37;99691.53;123217;1105;104373;-82
2023/02/26 09:45:00;;;;;;;10.85;5.05;;;;;;;5.90;80.69;99694.83;123230;1105;104290;-83
2023/02/26 09:47:40;;;;;;;9.85;4.90;;;;;;;5.89;81.07;99692.16;123150;1106;104262;-82
2023/02/26 09:50:18;;;;;;;9.93;4.33;;;;;;;5.85;81.19;99687.67;123165;1109;104299;-83
2023/02/26 09:52:55;;;;;;;9.20;4.13;;;;;;;5.84;80.68;99688.48;123308;1105;104224;-83
2023/02/26 09:55:30;;;;;;;7.83;4.20;;;;;;;5.83;81.75;99682.41;123354;1105;104267;-82
2023/02/26 09:58:05;;;;;;;7.37;4.13;;;;;;;5.83;82.12;99682.41;123290;1109;104386;-82
2023/02/26 10:00:44;;;;;;;8.37;4.50;;;;;;;5.82;82.29;99675.41;123323;1109;106979;-82
2023/02/26 10:03:25;;;;;;;7.87;4.47;;;;;;;5.83;81.91;99665.87;123222;1107;104456;-83
2023/02/26 10:06:18;;;;;;;7.27;4.10;;;;;;;5.82;83.41;99664.11;123415;1109;104303;-82
2023/02/26 10:08:59;;;;;;;7.77;4.30;;;;;;;5.86;83.60;99666.00;123585;1109;104387;-82
2023/02/26 10:11:36;;;;;;;7.93;4.23;;;;;;;5.94;82.87;99660.29;123237;1109;104197;-83
2023/02/26 10:14:15;;;;;;;7.40;3.97;;;;;;;6.02;82.58;99665.84;123259;1109;104217;-83
2023/02/26 10:16:52;;;;;;;5.30;3.60;;;;;;;6.08;82.41;99665.22;123167;1106;104283;-83
2023/02/26 10:19:27;;;;;;;8.97;4.57;;;;;;;6.15;82.30;99666.34;123102;1109;104239;-84
2023/02/26 10:22:01;;;;;;;7.73;4.50;;;;;;;6.22;81.94;99660.56;123279;1107;104245;-84
2023/02/26 10:24:35;;;;;;;;;;;;;;;6.29;83.04;99657.34;123326;1109;104307;-83
2023/02/26 10:27:11;;;;;;;8.98;4.45;;;;;;;6.42;82.39;99659.61;123222;1105;104261;-82
2023/02/26 10:29:52;;;;;;;8.40;4.93;;;;;;;6.44;81.69;99655.34;123428;1107;104315;-83
2023/02/26 10:32:30;;;;;;;7.30;4.30;;;;;;;6.56;81.92;99661.84;123290;1109;104267;-83
2023/02/26 10:35:07;;;;;;;9.50;4.60;;;;;;;6.55;81.62;99660.09;123427;1109;104194;-83
2023/02/26 10:37:48;;;;;;;7.33;4.43;;;;;;;6.55;81.83;99660.97;123376;1109;104304;-82
2023/02/26 10:40:28;;;;;;;7.33;4.50;;;;;;;6.59;81.35;99661.96;123326;1109;104524;-83
2023/02/26 10:43:04;;;;;;;6.73;4.00;;;;;;;6.63;81.77;99675.17;123380;1109;104216;-84
2023/02/26 10:45:53;;;;;;;5.80;3.90;;;;;;;6.51;81.66;99672.09;123821;1109;104299;-84
2023/02/26 10:48:39;;;;;;;8.13;3.90;;;;;;;6.50;81.93;99682.45;123419;1109;104328;-82
2023/02/26 10:51:15;;;;;;;7.63;4.10;;;;;;;6.46;81.63;99679.73;123593;1109;104363;-83
2023/02/26 10:53:51;;;;;;;7.27;3.97;;;;;;;6.43;81.57;99673.52;123814;1109;104336;-83
2023/02/26 10:56:27;;;;;;;9.00;4.23;;;;;;;6.39;81.85;99675.13;123654;1109;104264;-83
2023/02/26 10:58:59;;;;;;;8.13;4.37;;;;;;;6.41;82.22;99683.88;123250;1108;104335;-83
2023/02/26 11:01:32;;;;;;;8.20;4.20;;;;;;;6.45;81.75;99677.06;123323;1109;104293;-84
2023/02/26 11:04:13;;;;;;;7.30;4.10;;;;;;;6.47;81.96;99688.46;123327;1109;104312;-84
2023/02/26 11:06:50;;;;;;;11.13;4.97;;;;;;;6.46;81.67;99691.88;123498;1109;104664;-84
2023/02/26 11:09:28;;;;;;;11.57;5.30;;;;;;;6.46;81.98;99690.16;123353;1108;104306;-83
2023/02/26 11:12:15;;;;;;;7.90;4.60;;;;;;;6.47;82.45;99696.28;123524;1109;111472;-83
2023/02/26 11:14:50;;;;;;;9.75;5.20;;;;;;;6.46;82.18;99692.77;123252;1109;104337;-83
2023/02/26 11:17:28;;;;;;;7.85;4.60;;;;;;;6.43;82.25;99697.86;123418;1108;104216;-83
2023/02/26 11:20:04;;;;;;;9.33;4.93;;;;;;;6.39;82.00;99690.77;123388;1108;104421;-84
2023/02/26 11:22:36;;;;;;;9.10;4.90;;;;;;;6.45;81.73;99696.22;123494;1108;104370;-83
2023/02/26 11:25:13;;;;;;;10.90;5.13;;;;;;;6.48;82.42;99687.61;123339;1107;104296;-83
2023/02/26 11:27:46;;;;;;;20.30;9.33;;;;;;;6.45;82.51;99691.01;123370;1109;104277;-83
2023/02/26 11:30:19;;;;;;;16.25;7.50;;;;;;;6.48;82.38;99698.95;123502;1107;105640;-84
2023/02/26 11:32:52;;;;;;;13.67;6.40;;;;;;;6.47;82.71;99699.77;123492;1105;104778;-84
2023/02/26 11:35:26;;;;;;;15.43;6.50;;;;;;;6.46;82.33;99697.09;123352;1105;104331;-84
2023/02/26 11:38:02;;;;;;;16.37;7.58;;;;;;;6.46;82.58;99707.52;123429;1106;104457;-82
2023/02/26 11:40:40;;;;;;;13.03;6.50;;;;;;;6.48;82.30;99713.67;123303;1106;104246;-83
2023/02/26 11:43:16;;;;;;;13.10;5.95;;;;;;;6.50;82.51;99712.04;123364;1106;104302;-83
2023/02/26 11:45:52;;;;;;;14.03;6.23;;;;;;;6.55;82.25;99713.09;123464;1109;104306;-83
2023/02/26 11:48:28;;;;;;;13.87;5.93;;;;;;;6.56;82.74;99712.28;123426;1109;104264;-83
2023/02/26 11:51:03;;;;;;;15.70;7.90;;;;;;;6.54;82.76;99706.09;123375;1109;105707;-83
2023/02/26 11:53:38;;;;;;;14.50;7.00;;;;;;;6.54;82.23;99716.52;123462;1109;104300;-83
2023/02/26 11:56:14;;;;;;;14.57;6.60;;;;;;;6.56;82.58;99714.89;123397;1108;104392;-83
2023/02/26 11:58:51;;;;;;;13.37;5.83;;;;;;;6.57;82.93;99720.98;123402;1109;104495;-84